Dubrovnik, Croatia
Current Conditions -  °F | °C
As of 12:00 PM on Monday 20 Oct 2014 (Local Time) from LDDU Reporting Station
Clear Clear  
Wind Chill: 68°   Ceiling: Unl
Heat Index: 68°   Visibility: 6mi
Dew Point: 55°   Wind: 6mph
Humidity: 64%   Direction: 270°W
Pressure: 30.21"   Gusts: NA
Location:  42.66°N, 18.07°E
Report Text: LDDU 201000Z 27005KT 230V300 CAVOK 20/13 Q1023 NOSIG
Loading
Personal Weather Stations






























Interactive Weather Map
Tropical Storm Tracking
New forecast layout! Learn more

10-Day Weather Forecast

Advertisements
Track Severe Weather on mobile